Time;durP1;ratioP1;P1;durP2;ratioP2;P2;SDS_P1;SDS_P2;PMS_P1;PMS_P2;Temp;Humidity;BMP_temperature;BMP_pressure;BME280_temperature;BME280_humidity;BME280_pressure;Samples;Min_cycle;Max_cycle;Signal;HPM_P1;HPM_P2
2023/10/10 00:01:42;;;;;;;13.43;5.80;;;;;;;14.78;100.00;97282.63;5042207;28;20218;-55
2023/10/10 00:04:10;;;;;;;11.70;5.00;;;;;;;14.80;100.00;97275.31;5041703;28;20203;-55
2023/10/10 00:06:38;;;;;;;12.90;5.40;;;;;;;14.79;100.00;97273.63;5042253;28;20207;-56
2023/10/10 00:09:06;;;;;;;10.05;5.38;;;;;;;14.79;100.00;97278.97;5041688;28;20461;-55
2023/10/10 00:11:35;;;;;;;14.65;5.57;;;;;;;14.79;100.00;97275.47;5041557;28;20253;-55
2023/10/10 00:14:05;;;;;;;12.55;5.45;;;;;;;14.78;100.00;97276.44;5041446;28;20571;-53
2023/10/10 00:16:35;;;;;;;12.85;5.43;;;;;;;14.78;100.00;97287.94;5041968;28;20281;-52
2023/10/10 00:19:12;;;;;;;13.25;4.97;;;;;;;14.77;100.00;97282.78;5041821;28;20231;-55
2023/10/10 00:21:40;;;;;;;8.80;4.68;;;;;;;14.73;100.00;97284.91;5043257;28;20203;-53
2023/10/10 00:24:11;;;;;;;11.20;5.22;;;;;;;14.75;100.00;97282.06;5042252;28;20751;-54
2023/10/10 00:26:37;;;;;;;12.85;5.43;;;;;;;14.70;100.00;97274.53;5043028;28;20209;-54
2023/10/10 00:29:06;;;;;;;13.27;5.15;;;;;;;14.68;100.00;97273.88;5042132;28;20237;-54
2023/10/10 00:31:33;;;;;;;14.20;5.70;;;;;;;14.65;100.00;97266.19;5041391;28;20199;-53
2023/10/10 00:34:00;;;;;;;12.02;4.90;;;;;;;14.60;100.00;97264.97;5042078;28;20297;-55
2023/10/10 00:36:33;;;;;;;14.88;5.22;;;;;;;14.54;100.00;97268.25;5041697;28;20287;-54
2023/10/10 00:39:06;;;;;;;10.48;4.85;;;;;;;14.51;100.00;97258.75;5042052;28;20721;-53
2023/10/10 00:41:35;;;;;;;12.25;5.22;;;;;;;14.46;100.00;97261.03;5042146;28;20199;-53
2023/10/10 00:44:02;;;;;;;13.45;5.03;;;;;;;14.42;100.00;97255.16;5042078;28;20204;-55
2023/10/10 00:46:29;;;;;;;13.13;5.60;;;;;;;14.35;100.00;97261.25;5041492;28;20226;-52
2023/10/10 00:48:59;;;;;;;10.32;4.88;;;;;;;14.34;100.00;97257.78;5041767;28;20211;-52
2023/10/10 00:51:30;;;;;;;13.65;5.70;;;;;;;14.32;100.00;97264.16;5041568;28;20241;-54
2023/10/10 00:54:08;;;;;;;9.65;4.50;;;;;;;14.32;100.00;97269.50;5041991;28;20222;-55
2023/10/10 00:56:35;;;;;;;9.60;4.40;;;;;;;14.25;100.00;97265.75;5041326;28;20190;-54
2023/10/10 00:59:03;;;;;;;15.98;5.00;;;;;;;14.25;100.00;97273.75;5041713;28;20268;-55
2023/10/10 01:01:30;;;;;;;12.05;4.80;;;;;;;14.21;100.00;97273.22;5041714;28;20208;-53
2023/10/10 01:03:57;;;;;;;11.57;4.88;;;;;;;14.22;100.00;97274.03;5040745;28;20941;-54
2023/10/10 01:06:25;;;;;;;11.82;4.95;;;;;;;14.20;100.00;97265.41;5041191;28;20219;-52
2023/10/10 01:08:57;;;;;;;13.77;5.00;;;;;;;14.17;100.00;97269.16;5041461;28;20211;-54
2023/10/10 01:11:24;;;;;;;11.77;4.85;;;;;;;14.23;100.00;97270.41;5048198;28;20204;-55
2023/10/10 01:13:52;;;;;;;9.98;5.10;;;;;;;14.24;100.00;97266.78;5050895;28;20191;-54
2023/10/10 01:16:22;;;;;;;12.65;5.00;;;;;;;14.26;100.00;97267.44;5051293;28;21433;-55
2023/10/10 01:18:54;;;;;;;14.48;5.50;;;;;;;14.22;100.00;97269.56;5049346;28;20223;-56
2023/10/10 01:21:30;;;;;;;11.00;4.78;;;;;;;14.22;100.00;97272.22;5048052;28;20633;-55
2023/10/10 01:24:11;;;;;;;10.52;4.70;;;;;;;14.22;100.00;97271.38;5048849;28;20297;-54
2023/10/10 01:26:38;;;;;;;13.27;4.65;;;;;;;14.18;100.00;97270.84;5045992;28;20230;-54
2023/10/10 01:29:20;;;;;;;10.15;5.13;;;;;;;14.11;100.00;97263.63;5047652;28;20216;-55
2023/10/10 01:31:48;;;;;;;15.02;5.47;;;;;;;14.05;100.00;97261.56;5048554;28;20227;-55
2023/10/10 01:34:30;;;;;;;12.43;4.85;;;;;;;14.06;100.00;97257.94;5048615;28;20706;-54
2023/10/10 01:36:59;;;;;;;12.65;4.88;;;;;;;14.03;100.00;97253.72;5047539;28;20207;-55
2023/10/10 01:39:47;;;;;;;9.20;4.40;;;;;;;13.98;100.00;97257.81;5048065;28;20242;-58
2023/10/10 01:42:16;;;;;;;12.32;5.05;;;;;;;13.97;100.00;97259.66;5046917;28;20227;-56
2023/10/10 01:44:43;;;;;;;11.38;4.93;;;;;;;13.94;100.00;97259.94;5046553;28;20266;-53
2023/10/10 01:47:18;;;;;;;13.95;5.20;;;;;;;13.90;100.00;97251.44;5048112;28;20199;-55
2023/10/10 01:49:46;;;;;;;12.85;5.43;;;;;;;13.88;100.00;97249.91;5046681;28;20744;-53
2023/10/10 01:52:17;;;;;;;11.63;5.10;;;;;;;13.92;100.00;97253.97;5045051;28;20747;-53
2023/10/10 01:54:46;;;;;;;13.13;5.32;;;;;;;13.88;100.00;97253.41;5044974;28;20192;-55
2023/10/10 01:57:21;;;;;;;11.60;5.10;;;;;;;13.86;100.00;97255.38;5044869;28;20244;-53
2023/10/10 01:59:48;;;;;;;12.40;5.35;;;;;;;13.89;100.00;97257.72;5044530;28;20218;-54
2023/10/10 02:02:16;;;;;;;13.52;5.03;;;;;;;13.88;100.00;97265.88;5043823;28;20207;-54
2023/10/10 02:04:43;;;;;;;13.38;5.47;;;;;;;13.92;100.00;97257.44;5043700;28;20207;-53
2023/10/10 02:07:16;;;;;;;8.82;4.45;;;;;;;13.92;100.00;97262.75;5044699;28;20208;-54
2023/10/10 02:09:53;;;;;;;14.63;5.05;;;;;;;13.92;100.00;97260.09;5044388;28;20538;-55
2023/10/10 02:12:22;;;;;;;13.43;5.25;;;;;;;13.93;100.00;97261.75;5044151;28;20628;-52
2023/10/10 02:14:48;;;;;;;12.55;4.57;;;;;;;13.92;100.00;97257.44;5044264;28;20628;-54
2023/10/10 02:17:23;;;;;;;14.40;4.83;;;;;;;13.86;100.00;97258.03;5044516;28;20215;-54
2023/10/10 02:19:57;;;;;;;13.37;5.07;;;;;;;13.85;100.00;97256.34;5044270;28;20546;-53
2023/10/10 02:22:33;;;;;;;15.97;5.67;;;;;;;13.83;100.00;97258.31;5042608;28;20207;-53
2023/10/10 02:27:55;;;;;;;12.93;5.70;;;;;;;13.80;100.00;97253.31;5043875;28;20528;-53
2023/10/10 02:30:30;;;;;;;12.80;5.38;;;;;;;13.76;100.00;97246.63;5043344;28;20204;-53
2023/10/10 02:33:01;;;;;;;12.23;4.97;;;;;;;13.75;100.00;97246.75;5044100;28;20278;-52
2023/10/10 02:35:34;;;;;;;12.07;4.93;;;;;;;13.72;100.00;97245.22;5044388;28;20203;-55
2023/10/10 02:38:04;;;;;;;12.85;5.40;;;;;;;13.69;100.00;97245.53;5047698;28;20223;-54
2023/10/10 02:40:32;;;;;;;8.90;5.10;;;;;;;13.67;100.00;97242.19;5047318;28;20212;-55
2023/10/10 02:43:18;;;;;;;11.93;5.00;;;;;;;13.64;100.00;97247.78;5047943;28;20195;-53
2023/10/10 02:45:45;;;;;;;9.30;4.70;;;;;;;13.62;100.00;97244.44;5049952;28;20263;-54
2023/10/10 02:48:20;;;;;;;13.55;4.88;;;;;;;13.55;100.00;97232.72;5047398;28;20211;-54
2023/10/10 02:50:51;;;;;;;11.43;4.40;;;;;;;13.49;100.00;97243.13;5047216;28;20198;-54
2023/10/10 02:53:19;;;;;;;11.07;5.20;;;;;;;13.46;100.00;97246.91;5049443;28;20199;-53
2023/10/10 02:55:51;;;;;;;10.30;5.40;;;;;;;13.48;100.00;97241.44;5046561;28;20206;-53
2023/10/10 02:58:21;;;;;;;16.50;5.18;;;;;;;13.40;100.00;97239.50;5049185;28;20218;-52
2023/10/10 03:00:52;;;;;;;9.52;4.43;;;;;;;13.36;100.00;97241.59;5044864;28;20215;-53
2023/10/10 03:03:19;;;;;;;13.95;5.10;;;;;;;13.36;100.00;97238.94;5044141;28;20529;-53
2023/10/10 03:05:51;;;;;;;8.75;4.68;;;;;;;13.35;100.00;97244.44;5042838;28;20219;-54
2023/10/10 03:08:26;;;;;;;10.70;5.30;;;;;;;13.36;100.00;97238.94;5043336;28;20301;-52
2023/10/10 03:10:54;;;;;;;9.63;5.00;;;;;;;13.32;100.00;97242.06;5042974;28;20199;-54
2023/10/10 03:13:35;;;;;;;11.73;5.35;;;;;;;13.29;100.00;97252.97;5043375;28;20227;-54
2023/10/10 03:16:29;;;;;;;10.60;5.10;;;;;;;13.29;100.00;97250.31;5042384;28;20187;-54
2023/10/10 03:19:13;;;;;;;10.07;5.03;;;;;;;13.25;100.00;97240.97;5042966;28;20208;-52
2023/10/10 03:21:50;;;;;;;12.73;5.60;;;;;;;13.26;100.00;97245.28;5042598;28;20219;-55
2023/10/10 03:24:30;;;;;;;10.60;5.60;;;;;;;13.24;100.00;97244.59;5042743;28;20251;-55
2023/10/10 03:27:11;;;;;;;9.50;5.23;;;;;;;13.21;100.00;97248.41;5044069;28;20302;-54
2023/10/10 03:29:37;;;;;;;13.10;5.20;;;;;;;13.20;100.00;97243.22;5044247;28;20200;-54
2023/10/10 03:32:25;;;;;;;10.67;4.63;;;;;;;13.19;100.00;97252.16;5043915;28;20218;-55
2023/10/10 03:34:56;;;;;;;11.45;5.25;;;;;;;13.19;100.00;97253.00;5043516;28;20290;-54
2023/10/10 03:37:30;;;;;;;10.35;5.35;;;;;;;13.16;100.00;97257.75;5042843;28;20203;-54
2023/10/10 03:40:07;;;;;;;13.98;5.00;;;;;;;13.18;100.00;97246.00;5043589;28;20271;-54
2023/10/10 05:24:24;;;;;;;11.63;4.97;;;;;;;12.71;100.00;97233.66;5040608;28;20250;-51
2023/10/10 05:26:54;;;;;;;10.67;5.03;;;;;;;12.73;100.00;97235.19;5040768;28;20264;-51
2023/10/10 05:29:21;;;;;;;12.33;5.37;;;;;;;12.67;100.00;97235.75;5041153;28;20207;-53
2023/10/10 05:31:47;;;;;;;14.23;5.23;;;;;;;12.66;100.00;97234.06;5041295;28;20191;-52
2023/10/10 05:34:14;;;;;;;11.17;5.00;;;;;;;12.70;100.00;97232.81;5041095;28;20263;-53
2023/10/10 05:36:44;;;;;;;17.20;5.80;;;;;;;12.68;100.00;97234.75;5041396;28;20709;-50
2023/10/10 05:39:17;;;;;;;9.97;4.77;;;;;;;12.65;100.00;97227.09;5041688;28;20207;-52
2023/10/10 05:41:44;;;;;;;10.40;5.53;;;;;;;12.65;100.00;97231.53;5040929;28;20633;-54
2023/10/10 05:44:13;;;;;;;15.47;5.30;;;;;;;12.64;100.00;97233.38;5040958;28;20204;-53
2023/10/10 05:46:39;;;;;;;13.90;4.80;;;;;;;12.64;100.00;97238.69;5040851;28;20222;-53
2023/10/10 05:49:06;;;;;;;15.87;5.43;;;;;;;12.66;100.00;97238.53;5040503;28;20204;-52
2023/10/10 05:51:33;;;;;;;17.27;5.03;;;;;;;12.66;100.00;97244.69;5041062;28;20203;-53
2023/10/10 05:54:01;;;;;;;11.57;5.30;;;;;;;12.68;100.00;97242.72;5040786;28;20204;-52
2023/10/10 05:56:29;;;;;;;10.10;5.33;;;;;;;12.73;100.00;97240.47;5043423;28;20204;-53
2023/10/10 05:58:56;;;;;;;11.87;5.33;;;;;;;12.77;100.00;97244.53;5045079;28;20591;-52
2023/10/10 06:01:23;;;;;;;13.30;5.53;;;;;;;12.77;100.00;97246.34;5044680;28;20196;-52
2023/10/10 06:03:51;;;;;;;13.90;5.23;;;;;;;12.82;100.00;97244.94;5044644;28;20226;-53
2023/10/10 06:06:21;;;;;;;16.10;5.53;;;;;;;12.83;100.00;97254.56;5043639;28;20690;-52
2023/10/10 06:08:53;;;;;;;10.30;4.67;;;;;;;12.86;100.00;97256.09;5044495;28;20282;-52
2023/10/10 06:11:21;;;;;;;13.27;5.23;;;;;;;12.88;100.00;97255.00;5043707;28;20226;-52
2023/10/10 06:13:48;;;;;;;11.57;5.00;;;;;;;12.92;100.00;97252.91;5043914;28;20625;-53
2023/10/10 06:16:15;;;;;;;14.23;5.20;;;;;;;12.92;100.00;97260.88;5044100;28;20294;-52
2023/10/10 06:18:47;;;;;;;13.67;5.13;;;;;;;12.95;100.00;97255.25;5044058;28;20206;-51
2023/10/10 06:21:14;;;;;;;13.00;5.10;;;;;;;12.96;100.00;97257.78;5044325;28;20270;-53
2023/10/10 06:23:42;;;;;;;15.40;5.20;;;;;;;13.01;100.00;97260.00;5043878;28;20235;-53
2023/10/10 06:26:08;;;;;;;11.73;5.23;;;;;;;13.05;100.00;97265.84;5044200;28;20232;-52
2023/10/10 06:28:42;;;;;;;10.20;5.17;;;;;;;13.13;100.00;97263.38;5043767;28;20218;-52
2023/10/10 06:31:10;;;;;;;10.67;5.67;;;;;;;13.25;100.00;97267.53;5043845;28;20219;-52
2023/10/10 06:33:40;;;;;;;11.47;5.03;;;;;;;13.27;100.00;97254.94;5043816;28;20589;-51
2023/10/10 06:36:32;;;;;;;10.70;5.50;;;;;;;13.30;100.00;97254.63;5043614;28;20203;-53
2023/10/10 06:41:43;;;;;;;10.37;5.13;;;;;;;13.51;100.00;97260.56;5043186;28;20210;-52
2023/10/10 06:44:13;;;;;;;13.13;5.23;;;;;;;13.61;100.00;97261.38;5044369;28;20235;-53
2023/10/10 06:46:40;;;;;;;16.33;6.30;;;;;;;13.70;100.00;97262.31;5043483;28;20232;-53
2023/10/10 06:49:06;;;;;;;10.67;5.50;;;;;;;13.83;100.00;97261.00;5043220;28;20204;-52
2023/10/10 06:51:39;;;;;;;13.20;5.67;;;;;;;13.92;100.00;97265.41;5043697;28;20211;-52
2023/10/10 06:54:08;;;;;;;11.63;6.40;;;;;;;14.02;100.00;97257.38;5043537;28;20593;-53
2023/10/10 06:56:45;;;;;;;14.87;5.57;;;;;;;14.12;100.00;97257.31;5042997;28;20282;-53
2023/10/10 06:59:16;;;;;;;14.33;6.27;;;;;;;14.19;100.00;97263.72;5042780;28;20624;-53
2023/10/10 07:01:45;;;;;;;11.40;5.40;;;;;;;14.28;100.00;97262.78;5043012;28;20195;-53
2023/10/10 07:04:11;;;;;;;15.48;5.65;;;;;;;14.38;100.00;97268.94;5042596;28;20261;-52
2023/10/10 07:06:38;;;;;;;12.07;6.20;;;;;;;14.46;100.00;97269.00;5042806;28;20276;-54
2023/10/10 07:09:15;;;;;;;14.77;6.07;;;;;;;14.52;100.00;97257.78;5042657;28;20302;-53
2023/10/10 07:11:41;;;;;;;13.93;6.07;;;;;;;14.56;100.00;97275.09;5042940;28;20202;-52
2023/10/10 07:14:10;;;;;;;14.73;7.05;;;;;;;14.69;100.00;97272.06;5042794;28;20230;-52
2023/10/10 07:16:42;;;;;;;15.13;6.45;;;;;;;14.86;100.00;97269.38;5043095;28;20208;-52
2023/10/10 07:19:19;;;;;;;16.67;6.88;;;;;;;14.99;100.00;97263.63;5042762;28;20241;-52
2023/10/10 07:21:45;;;;;;;15.25;6.38;;;;;;;15.13;100.00;97264.88;5042682;28;20210;-52
2023/10/10 07:24:14;;;;;;;20.23;7.45;;;;;;;15.24;100.00;97273.47;5042370;28;20248;-52
2023/10/10 07:26:42;;;;;;;15.68;6.78;;;;;;;15.35;100.00;97269.72;5042317;28;20227;-51
2023/10/10 07:32:16;;;;;;;18.17;8.68;;;;;;;15.61;100.00;97270.56;5108213;27;20562;-53
2023/10/10 07:34:42;;;;;;;16.42;7.38;;;;;;;15.67;100.00;97269.94;5107583;28;20602;-53
2023/10/10 07:37:14;;;;;;;15.38;7.30;;;;;;;15.77;100.00;97270.63;5108950;28;20217;-52
2023/10/10 07:39:55;;;;;;;16.27;7.97;;;;;;;15.85;100.00;97268.00;5108977;28;20280;-52
2023/10/10 07:42:27;;;;;;;19.05;8.20;;;;;;;15.91;100.00;97271.84;5108390;28;20189;-54
2023/10/10 07:44:54;;;;;;;22.63;8.85;;;;;;;15.91;100.00;97271.84;5108531;28;20201;-53
2023/10/10 07:47:26;;;;;;;19.17;7.97;;;;;;;16.00;100.00;97275.41;5107413;28;20292;-51
2023/10/10 07:49:53;;;;;;;17.40;7.57;;;;;;;16.09;100.00;97269.09;5107509;28;20201;-53
2023/10/10 07:52:21;;;;;;;18.63;8.50;;;;;;;16.10;100.00;97266.25;5108201;28;20193;-53
2023/10/10 07:54:51;;;;;;;25.38;8.15;;;;;;;16.14;100.00;97267.63;5108073;28;20254;-51
2023/10/10 07:57:22;;;;;;;16.15;7.53;;;;;;;16.16;100.00;97268.28;5107683;28;20193;-53
2023/10/10 07:59:49;;;;;;;15.95;8.07;;;;;;;16.19;100.00;97269.81;5107969;28;20197;-51
2023/10/10 08:02:25;;;;;;;16.10;7.43;;;;;;;16.22;100.00;97269.47;5107675;28;20201;-52
2023/10/10 08:04:54;;;;;;;17.75;7.05;;;;;;;16.25;100.00;97267.31;5107618;28;20287;-52
2023/10/10 08:07:21;;;;;;;12.57;7.32;;;;;;;16.31;100.00;97265.81;5108053;28;20539;-52
2023/10/10 08:09:48;;;;;;;18.55;8.10;;;;;;;16.39;100.00;97260.50;5109990;28;20198;-52
2023/10/10 08:12:14;;;;;;;18.10;7.50;;;;;;;16.46;100.00;97266.03;5115663;28;20229;-52
2023/10/10 08:14:41;;;;;;;17.92;8.10;;;;;;;16.49;100.00;97263.84;5115556;28;20539;-53
2023/10/10 08:17:18;;;;;;;15.95;8.23;;;;;;;16.54;100.00;97269.56;5112740;28;20197;-52
2023/10/10 08:19:50;;;;;;;19.90;7.68;;;;;;;16.62;100.00;97269.56;5107722;28;20193;-52
2023/10/10 08:22:19;;;;;;;18.25;7.13;;;;;;;16.72;100.00;97267.56;5107383;28;21168;-52
2023/10/10 08:24:46;;;;;;;14.00;7.13;;;;;;;16.81;100.00;97276.44;5107506;28;20216;-53
2023/10/10 08:27:13;;;;;;;16.50;7.68;;;;;;;16.90;100.00;97268.25;5107144;28;20638;-52
2023/10/10 08:29:40;;;;;;;16.95;7.15;;;;;;;17.01;100.00;97266.22;5107188;28;20205;-51
2023/10/10 08:32:08;;;;;;;17.02;8.20;;;;;;;17.05;100.00;97273.75;5107802;28;20213;-52
2023/10/10 08:34:38;;;;;;;14.52;7.72;;;;;;;17.17;100.00;97267.09;5106492;28;20198;-52
2023/10/10 08:37:05;;;;;;;13.02;6.85;;;;;;;17.32;100.00;97268.03;5107715;28;20205;-53
2023/10/10 08:39:36;;;;;;;17.00;7.10;;;;;;;17.46;100.00;97255.84;5107032;28;20201;-53
2023/10/10 08:42:05;;;;;;;17.38;7.22;;;;;;;17.60;100.00;97267.69;5101687;28;20201;-51
2023/10/10 08:44:36;;;;;;;18.58;7.70;;;;;;;17.67;100.00;97264.16;5093105;28;20206;-53
2023/10/10 08:47:05;;;;;;;21.05;7.18;;;;;;;17.82;100.00;97262.41;5093683;28;20283;-52
2023/10/10 08:49:31;;;;;;;16.35;7.43;;;;;;;17.96;100.00;97265.41;5092878;28;20646;-52
2023/10/10 08:52:02;;;;;;;15.38;6.78;;;;;;;18.05;100.00;97267.03;5092970;28;20217;-52
2023/10/10 08:54:29;;;;;;;12.65;6.57;;;;;;;18.14;100.00;97269.47;5093579;28;20553;-51
2023/10/10 08:57:03;;;;;;;14.77;7.05;;;;;;;18.19;100.00;97264.44;5094121;28;20209;-53
2023/10/10 08:59:31;;;;;;;17.42;6.70;;;;;;;18.31;100.00;97262.22;5093475;28;20641;-51
2023/10/10 09:02:08;;;;;;;19.98;7.47;;;;;;;18.35;100.00;97263.53;5093264;28;20640;-52
2023/10/10 09:04:35;;;;;;;16.25;7.00;;;;;;;18.52;100.00;97262.44;5093473;28;20205;-53
2023/10/10 09:07:08;;;;;;;15.20;6.65;;;;;;;18.61;100.00;97264.06;5093818;28;20669;-51
2023/10/10 09:09:35;;;;;;;15.43;7.25;;;;;;;18.73;100.00;97262.63;5093717;28;20336;-53
2023/10/10 09:12:03;;;;;;;22.20;7.07;;;;;;;18.73;100.00;97261.81;5107120;28;20222;-52
2023/10/10 09:14:39;;;;;;;26.88;8.00;;;;;;;18.71;100.00;97259.28;5114554;28;20241;-52
2023/10/10 09:17:08;;;;;;;15.60;6.68;;;;;;;18.79;100.00;97261.91;5100343;28;20219;-53
2023/10/10 09:19:39;;;;;;;19.95;6.70;;;;;;;18.87;100.00;97264.53;5094767;28;20202;-54
2023/10/10 09:22:12;;;;;;;17.17;7.00;;;;;;;18.93;100.00;97262.97;5095331;28;20190;-55
2023/10/10 09:24:41;;;;;;;15.02;7.07;;;;;;;18.97;100.00;97260.78;5095488;28;20263;-54
2023/10/10 09:27:21;;;;;;;18.88;7.20;;;;;;;19.01;100.00;97265.59;5094801;28;20197;-52
2023/10/10 09:29:54;;;;;;;18.13;6.80;;;;;;;19.21;100.00;97260.53;5094115;28;20213;-53
2023/10/10 09:32:27;;;;;;;12.32;6.35;;;;;;;19.41;100.00;97263.56;5094635;28;20201;-53
2023/10/10 09:34:57;;;;;;;8.77;5.95;;;;;;;19.61;100.00;97262.88;5094154;28;20204;-54
2023/10/10 09:37:34;;;;;;;14.98;7.10;;;;;;;19.73;100.00;97269.44;5093217;28;20566;-53
2023/10/10 09:40:05;;;;;;;13.77;6.40;;;;;;;20.02;100.00;97260.53;5092346;28;20252;-52
2023/10/10 09:42:52;;;;;;;18.77;6.85;;;;;;;20.29;100.00;97257.19;5092210;28;20213;-53
2023/10/10 09:45:27;;;;;;;17.45;6.50;;;;;;;20.58;100.00;97258.94;5091900;28;20202;-53
2023/10/10 09:47:56;;;;;;;14.20;5.80;;;;;;;20.95;100.00;97257.88;5092366;28;20275;-54
2023/10/10 09:50:35;;;;;;;16.42;6.13;;;;;;;21.28;100.00;97252.81;5091859;28;20206;-51
2023/10/10 09:53:01;;;;;;;16.55;6.32;;;;;;;21.36;93.16;97252.69;5092058;28;20206;-52
2023/10/10 09:55:42;;;;;;;18.50;6.60;;;;;;;21.58;89.88;97251.59;5091078;28;20704;-52
2023/10/10 09:58:24;;;;;;;14.43;6.18;;;;;;;21.70;90.57;97249.19;5092947;28;21020;-51
2023/10/10 10:00:52;;;;;;;19.25;6.57;;;;;;;22.15;92.35;97253.16;5092415;28;20288;-51
2023/10/10 10:03:49;;;;;;;16.67;6.38;;;;;;;22.16;88.63;97250.28;5091895;28;20198;-53
2023/10/10 10:06:38;;;;;;;13.13;6.05;;;;;;;22.51;87.77;97242.94;5092357;28;20208;-52
2023/10/10 10:09:17;;;;;;;18.95;6.20;;;;;;;22.39;85.05;97246.44;5092412;28;20210;-54
2023/10/10 10:11:56;;;;;;;20.33;6.78;;;;;;;22.23;86.13;97247.63;5092309;28;20296;-54
2023/10/10 10:14:28;;;;;;;20.45;6.25;;;;;;;22.27;86.60;97255.09;5092226;28;20297;-53
2023/10/10 10:17:12;;;;;;;20.60;5.82;;;;;;;22.24;85.27;97243.91;5092057;28;20206;-52
2023/10/10 10:19:45;;;;;;;18.27;5.85;;;;;;;22.46;86.39;97242.72;5091758;28;20251;-51
2023/10/10 10:22:17;;;;;;;16.15;5.47;;;;;;;22.46;86.72;97245.41;5092433;28;20507;-51
2023/10/10 10:25:21;;;;;;;18.65;5.63;;;;;;;22.18;87.88;97244.69;5091429;28;20229;-51
2023/10/10 10:27:53;;;;;;;20.52;6.53;;;;;;;22.40;87.34;97251.63;5092272;28;20202;-52
2023/10/10 10:30:46;;;;;;;18.40;6.20;;;;;;;22.71;87.57;97249.25;5098797;28;20263;-53
2023/10/10 10:33:14;;;;;;;12.77;5.55;;;;;;;22.99;82.38;97242.88;5103835;28;20201;-52
2023/10/10 10:36:14;;;;;;;18.00;5.85;;;;;;;23.53;83.29;97256.16;5097046;28;20285;-53
2023/10/10 10:39:17;;;;;;;17.40;6.25;;;;;;;23.96;79.13;97246.53;5092455;28;20201;-51
2023/10/10 10:41:42;;;;;;;18.70;5.72;;;;;;;24.14;76.90;97253.97;5092191;28;20525;-53
2023/10/10 10:44:09;;;;;;;16.90;5.97;;;;;;;24.16;75.13;97254.63;5091331;28;20282;-52
2023/10/10 10:46:40;;;;;;;18.83;5.97;;;;;;;24.24;75.04;97255.19;5091481;28;20202;-53
2023/10/10 10:49:08;;;;;;;13.77;5.95;;;;;;;24.72;72.33;97252.88;5091289;28;20202;-54
2023/10/10 10:51:41;;;;;;;14.95;6.38;;;;;;;24.55;72.82;97257.13;5090999;28;20324;-54
2023/10/10 10:54:09;;;;;;;17.40;6.18;;;;;;;24.43;71.41;97253.44;5091613;28;20194;-52
2023/10/10 10:56:41;;;;;;;16.67;5.90;;;;;;;25.06;70.96;97248.94;5091867;28;20214;-54
2023/10/10 10:59:19;;;;;;;15.75;6.40;;;;;;;25.00;69.96;97247.13;5091406;28;20189;-51
2023/10/10 11:01:51;;;;;;;20.70;6.10;;;;;;;24.91;69.36;97242.16;5091525;28;20271;-53
2023/10/10 11:04:26;;;;;;;18.65;6.13;;;;;;;25.44;67.14;97234.44;5091108;28;20282;-52
2023/10/10 11:06:52;;;;;;;15.65;5.82;;;;;;;26.01;68.25;97230.56;5091337;28;20220;-55
2023/10/10 11:09:28;;;;;;;19.08;6.20;;;;;;;26.18;68.32;97231.69;5091502;28;20221;-52
2023/10/10 11:12:01;;;;;;;23.63;6.43;;;;;;;26.34;63.18;97219.38;5091831;28;20229;-52
2023/10/10 11:14:29;;;;;;;15.20;6.43;;;;;;;26.52;63.25;97222.88;5092671;28;20209;-53
2023/10/10 11:17:00;;;;;;;15.50;5.53;;;;;;;26.55;63.44;97222.41;5092664;28;20262;-52
2023/10/10 11:19:39;;;;;;;19.10;5.85;;;;;;;26.84;62.72;97211.81;5091064;28;20209;-53
2023/10/10 11:22:05;;;;;;;18.60;5.95;;;;;;;27.46;62.33;97213.94;5090991;28;20638;-53
2023/10/10 11:24:33;;;;;;;16.52;5.75;;;;;;;27.26;61.46;97205.28;5090606;28;20201;-54
2023/10/10 11:27:13;;;;;;;17.92;5.60;;;;;;;27.44;63.03;97210.63;5091338;28;20302;-52
2023/10/10 11:29:43;;;;;;;16.98;5.65;;;;;;;27.74;60.83;97198.84;5090532;28;20984;-53
2023/10/10 11:32:13;;;;;;;13.48;5.43;;;;;;;27.78;60.19;97199.97;5090706;28;20530;-51
2023/10/10 11:34:45;;;;;;;15.50;5.78;;;;;;;27.46;60.89;97186.78;5090535;28;20194;-52
2023/10/10 11:37:20;;;;;;;12.93;4.80;;;;;;;27.50;58.24;97187.97;5090737;28;20205;-53
2023/10/10 11:39:57;;;;;;;18.40;4.78;;;;;;;27.57;59.67;97183.22;5090296;28;20644;-55
2023/10/10 11:42:26;;;;;;;17.17;5.07;;;;;;;27.33;64.04;97175.28;5090630;28;20444;-54
2023/10/10 11:44:53;;;;;;;15.45;4.95;;;;;;;27.48;61.78;97167.53;5090484;28;20214;-52
2023/10/10 11:47:25;;;;;;;15.55;4.90;;;;;;;27.33;60.13;97170.69;5090799;28;20600;-51
2023/10/10 11:50:01;;;;;;;13.15;5.32;;;;;;;26.98;58.34;97167.13;5090008;28;20932;-51
2023/10/10 11:52:29;;;;;;;14.00;5.03;;;;;;;27.19;62.39;97167.38;5090213;28;20221;-52
2023/10/10 11:54:58;;;;;;;17.35;4.78;;;;;;;27.07;59.83;97157.56;5090525;28;20292;-54
2023/10/10 11:57:28;;;;;;;15.65;5.38;;;;;;;26.99;62.40;97155.19;5090440;28;20209;-51
2023/10/10 11:59:55;;;;;;;11.90;4.55;;;;;;;26.92;61.62;97160.75;5089870;28;20623;-53
2023/10/10 12:02:29;;;;;;;14.65;4.70;;;;;;;26.82;60.56;97156.91;5090870;28;20288;-53
2023/10/10 12:04:56;;;;;;;21.48;4.82;;;;;;;26.68;58.16;97153.56;5089873;28;20334;-52
2023/10/10 12:07:24;;;;;;;11.20;4.47;;;;;;;26.59;55.19;97144.94;5090723;28;20280;-52
2023/10/10 12:09:54;;;;;;;10.88;4.43;;;;;;;26.27;56.92;97145.41;5090340;28;20205;-50
2023/10/10 12:12:21;;;;;;;15.45;4.60;;;;;;;26.14;56.56;97144.50;5090630;28;20243;-52
2023/10/10 12:14:52;;;;;;;13.13;4.15;;;;;;;25.90;63.19;97140.00;5090535;28;20202;-53
2023/10/10 12:17:20;;;;;;;12.73;4.05;;;;;;;25.82;58.93;97134.09;5091792;28;20607;-53
2023/10/10 12:19:48;;;;;;;14.05;4.97;;;;;;;25.73;58.18;97136.25;5093350;28;20297;-52
2023/10/10 12:22:17;;;;;;;11.43;4.25;;;;;;;25.51;60.66;97135.88;5093975;28;20202;-51
2023/10/10 12:24:43;;;;;;;12.75;4.78;;;;;;;25.36;59.95;97129.97;5094211;28;20210;-53
2023/10/10 12:27:10;;;;;;;9.50;3.55;;;;;;;25.11;61.84;97127.31;5094015;28;20205;-52
2023/10/10 12:29:39;;;;;;;11.63;4.30;;;;;;;24.91;67.73;97125.81;5092857;28;20244;-52
2023/10/10 12:32:15;;;;;;;15.43;4.70;;;;;;;24.74;67.72;97128.22;5093932;28;20305;-53
2023/10/10 12:34:42;;;;;;;15.45;4.55;;;;;;;24.65;66.20;97124.13;5093051;28;20197;-51
2023/10/10 12:37:10;;;;;;;10.35;4.38;;;;;;;24.66;68.55;97129.31;5093702;28;20626;-53
2023/10/10 12:39:37;;;;;;;14.73;4.70;;;;;;;24.69;63.75;97122.66;5093495;28;20197;-51
2023/10/10 12:42:04;;;;;;;14.07;4.60;;;;;;;24.73;63.13;97129.25;5094065;28;20194;-53
2023/10/10 12:44:31;;;;;;;16.73;4.30;;;;;;;24.70;66.09;97125.13;5093220;28;20202;-51
2023/10/10 12:46:59;;;;;;;11.63;4.32;;;;;;;24.59;67.78;97125.00;5093153;28;20202;-54
2023/10/10 12:49:29;;;;;;;13.75;4.70;;;;;;;24.59;66.16;97123.13;5093525;28;20205;-52
2023/10/10 12:51:57;;;;;;;16.30;4.97;;;;;;;24.43;66.17;97118.25;5093016;28;20230;-52
2023/10/10 12:54:27;;;;;;;11.02;4.65;;;;;;;24.44;71.41;97114.53;5093468;28;20272;-54
2023/10/10 12:57:01;;;;;;;11.75;4.85;;;;;;;24.38;68.86;97115.38;5093714;28;20205;-52
2023/10/10 12:59:28;;;;;;;14.75;4.32;;;;;;;24.29;72.01;97116.69;5092900;28;20633;-52
2023/10/10 13:01:56;;;;;;;12.40;4.63;;;;;;;24.22;75.98;97116.75;5093344;28;20199;-52
2023/10/10 13:04:28;;;;;;;12.45;4.55;;;;;;;24.14;76.79;97108.88;5092473;28;20218;-52
2023/10/10 13:06:55;;;;;;;12.43;4.38;;;;;;;24.08;73.64;97109.72;5093557;28;20216;-51
2023/10/10 13:09:22;;;;;;;15.18;4.68;;;;;;;23.96;72.93;97116.00;5093370;28;20209;-51
2023/10/10 13:11:50;;;;;;;9.45;4.45;;;;;;;23.91;80.21;97105.03;5092599;28;20234;-52
2023/10/10 13:14:19;;;;;;;10.63;4.00;;;;;;;23.87;82.84;97101.94;5092853;28;20630;-53
2023/10/10 13:17:13;;;;;;;12.13;4.22;;;;;;;23.83;83.38;97099.88;5092528;28;20251;-51
2023/10/10 13:19:40;;;;;;;12.23;4.35;;;;;;;23.77;88.10;97096.16;5092394;28;20247;-53
2023/10/10 13:22:07;;;;;;;12.70;4.10;;;;;;;23.78;89.90;97100.50;5092935;28;20197;-53
2023/10/10 13:24:33;;;;;;;9.40;4.13;;;;;;;23.73;88.00;97105.75;5092511;28;20205;-52
2023/10/10 13:27:06;;;;;;;11.68;4.45;;;;;;;23.67;86.29;97099.31;5092944;28;20210;-51
2023/10/10 13:29:33;;;;;;;9.20;4.05;;;;;;;23.66;85.58;97097.66;5092177;28;20630;-52